»·PEaware :: WAT169 KSAN-KLAS

WAT169 :: KSAN-KLAS

FLIGHT INFORMATION

Flight Status: Arrived
Operator:
Walker Air Transport
More flights by this operator :: More flights under this callsign
Pilot: Marty P. (27464)
Aircraft: BOEING 737-800
(B738)
More flights by this aircraft type
Origin: KSAN San Diego Intl-Lindbergh
United States
Destination: KLAS McCarran Intl
United States
More flights between these airports :: More routes between these airports
Route: PADRZ2 CHKNN SEBBY YELAH MISEN KEPEC6
File this flight plan on PilotEdge
Remarks:
Altitude:
(Current/Filed)
27,000ft
Speed:
(Current/Filed)
470kts
Departed: 13-Jun-20 08:07 PM
Arrived: 13-Jun-20 09:00 PM
Distance/Time
Traveled:
225nm/0:53
Distance/Time
To Go:
Arrived

Flight Plot

Page will automatically refresh every two minutes.

Flight plan parsing failed; only flown route is shown


Map Options




Map Legend


Flown Route
Filed Route
Departure Airport
Arrival Airport
Navaid (VOR, NDB)
Fix

Horizontal Profiles

Position Reports

Time Latitude Longitude Heading Altitude Ground
Speed
13-Jun-20 19:43 32.733216 -117.196884 134 27ft 0kts
13-Jun-20 19:45 32.733216 -117.196884 134 27ft 0kts
13-Jun-20 19:46 32.733216 -117.196884 134 27ft 0kts
13-Jun-20 19:47 32.733216 -117.196884 134 27ft 0kts
13-Jun-20 19:48 32.733216 -117.196884 134 27ft 0kts
13-Jun-20 19:49 32.733216 -117.196884 134 27ft 0kts
13-Jun-20 19:50 32.733216 -117.196884 134 27ft 0kts
13-Jun-20 19:51 32.733216 -117.196884 134 27ft 0kts
13-Jun-20 19:52 32.733216 -117.196884 134 27ft 0kts
13-Jun-20 19:53 32.733216 -117.196884 134 27ft 0kts
13-Jun-20 19:54 32.733216 -117.196884 134 27ft 0kts
13-Jun-20 19:55 32.733216 -117.196884 134 27ft 0kts
13-Jun-20 19:56 32.733216 -117.196884 134 27ft 0kts
13-Jun-20 19:57 32.733216 -117.196884 134 27ft 0kts
13-Jun-20 19:58 32.733103 -117.197293 11 27ft 0kts
13-Jun-20 19:59 32.733077 -117.197299 12 27ft 0kts
13-Jun-20 20:00 32.733077 -117.197299 12 27ft 0kts
13-Jun-20 20:01 32.733308 -117.197212 20 27ft 7kts
13-Jun-20 20:02 32.733520 -117.193768 106 27ft 17kts
13-Jun-20 20:03 32.732202 -117.188335 106 27ft 22kts
13-Jun-20 20:03 32.730868 -117.182842 105 27ft 19kts
13-Jun-20 20:05 32.729479 -117.177093 98 27ft 4kts
13-Jun-20 20:05 32.729505 -117.176898 66 27ft 0kts
13-Jun-20 20:06 32.731152 -117.179714 286 27ft 67kts
13-Jun-20 20:07 32.747800 -117.228416 318 1676ft 213kts
13-Jun-20 20:08 32.782484 -117.289019 302 5079ft 236kts
13-Jun-20 20:09 32.822046 -117.353464 306 8438ft 249kts
13-Jun-20 20:10 32.865116 -117.419923 305 11480ft 265kts
13-Jun-20 20:11 32.917891 -117.501963 305 12484ft 348kts
13-Jun-20 20:12 32.977372 -117.594601 306 15315ft 358kts
13-Jun-20 20:13 33.038628 -117.690250 306 17878ft 367kts
13-Jun-20 20:14 33.110847 -117.777470 317 20224ft 377kts
13-Jun-20 20:15 33.191544 -117.859517 318 22321ft 386kts
13-Jun-20 20:16 33.275569 -117.941751 319 24248ft 393kts
13-Jun-20 20:17 33.361493 -118.025479 319 25816ft 404kts
13-Jun-20 20:18 33.451133 -118.113174 318 26910ft 422kts
13-Jun-20 20:19 33.544637 -118.202039 323 26985ft 439kts
13-Jun-20 20:20 33.653476 -118.274922 330 26990ft 454kts
13-Jun-20 20:21 33.777089 -118.287580 26 26964ft 491kts
13-Jun-20 20:22 33.863553 -118.156391 50 26954ft 507kts
13-Jun-20 20:23 33.946709 -118.018999 51 26946ft 507kts
13-Jun-20 20:24 34.028780 -117.881093 51 26958ft 507kts
13-Jun-20 20:25 34.112704 -117.744607 47 26968ft 506kts
13-Jun-20 20:26 34.201727 -117.613694 46 26967ft 506kts
13-Jun-20 20:27 34.291203 -117.482459 46 26966ft 506kts
13-Jun-20 20:28 34.380520 -117.351171 46 26969ft 504kts
13-Jun-20 20:29 34.468921 -117.220888 47 26965ft 506kts
13-Jun-20 20:30 34.557927 -117.089113 47 26965ft 505kts
13-Jun-20 20:31 34.647316 -116.956369 46 26907ft 509kts
13-Jun-20 20:32 34.736957 -116.822642 46 26863ft 512kts
13-Jun-20 20:33 34.825576 -116.690272 44 26857ft 475kts
13-Jun-20 20:34 34.919677 -116.582610 33 26864ft 466kts
13-Jun-20 20:35 35.019137 -116.485211 33 25997ft 450kts
13-Jun-20 20:36 35.111383 -116.390918 39 23894ft 433kts
13-Jun-20 20:37 35.196407 -116.285857 40 23868ft 447kts
13-Jun-20 20:38 35.280745 -116.180302 40 21670ft 425kts
13-Jun-20 20:39 35.361328 -116.079044 41 19336ft 409kts
13-Jun-20 20:40 35.439349 -115.980518 41 18200ft 393kts
13-Jun-20 20:41 35.518231 -115.880734 42 16258ft 403kts
13-Jun-20 20:42 35.594343 -115.784056 43 13972ft 386kts
13-Jun-20 20:43 35.664161 -115.695027 43 13145ft 341kts
13-Jun-20 20:44 35.729809 -115.618522 30 12972ft 313kts
13-Jun-20 20:45 35.803381 -115.559522 30 12964ft 308kts
13-Jun-20 20:46 35.876870 -115.500125 30 12976ft 317kts
13-Jun-20 20:47 35.951223 -115.439982 30 12132ft 324kts
13-Jun-20 20:48 36.016863 -115.368041 60 10946ft 311kts
13-Jun-20 20:49 36.023815 -115.268876 98 9849ft 297kts
13-Jun-20 20:50 36.016232 -115.168184 97 8646ft 291kts
13-Jun-20 20:51 36.009720 -115.071441 96 8043ft 264kts
13-Jun-20 20:52 36.004529 -114.983558 96 7240ft 253kts
13-Jun-20 20:53 36.001401 -114.900566 72 5451ft 233kts
13-Jun-20 20:54 36.053247 -114.886683 343 5518ft 204kts
13-Jun-20 20:55 36.073871 -114.939255 266 5163ft 187kts
13-Jun-20 20:56 36.073616 -114.993635 267 4333ft 154kts
13-Jun-20 20:57 36.073651 -115.045980 267 3490ft 152kts
13-Jun-20 20:58 36.073667 -115.098574 266 2664ft 153kts
13-Jun-20 20:59 36.073694 -115.142840 281 2191ft 29kts
13-Jun-20 21:00 36.075368 -115.146514 353 2191ft 9kts
13-Jun-20 21:01 36.078093 -115.147150 335 2191ft 10kts
13-Jun-20 21:02 36.079914 -115.147059 64 2191ft 0kts
13-Jun-20 21:03 36.079914 -115.147059 64 2191ft 0kts
13-Jun-20 21:04 36.079914 -115.147059 64 2191ft 0kts
13-Jun-20 21:05 36.079914 -115.147059 64 2191ft 0kts
13-Jun-20 21:06 36.079914 -115.147059 64 2191ft 0kts

Navigation Log

Ident Type
Flight plan parsing failed, navigation log unavailable